Time;durP1;ratioP1;P1;durP2;ratioP2;P2;SDS_P1;SDS_P2;PMS_P1;PMS_P2;Temp;Humidity;BMP_temperature;BMP_pressure;BME280_temperature;BME280_humidity;BME280_pressure;Samples;Min_cycle;Max_cycle;Signal;HPM_P1;HPM_P2
2023/01/18 00:01:11;;;;;;;20.48;9.15;;;-1.20;99.90;;;;;;4994818;28;20492;-89
2023/01/18 00:03:38;;;;;;;19.77;9.88;;;-1.20;99.90;;;;;;5079851;28;20026;-88
2023/01/18 00:06:06;;;;;;;16.10;7.82;;;-1.20;99.90;;;;;;4994653;28;20370;-89
2023/01/18 00:08:33;;;;;;;21.02;9.65;;;-1.20;99.90;;;;;;4994443;28;20042;-89
2023/01/18 00:11:04;;;;;;;19.17;8.73;;;-1.20;99.90;;;;;;4994466;28;20034;-88
2023/01/18 00:13:30;;;;;;;20.52;9.93;;;-1.20;99.90;;;;;;4994451;28;20037;-90
2023/01/18 00:16:07;;;;;;;17.27;8.57;;;-1.20;99.90;;;;;;4994515;28;20030;-88
2023/01/18 00:18:34;;;;;;;17.98;8.10;;;-1.20;99.90;;;;;;4994169;28;20030;-88
2023/01/18 00:21:06;;;;;;;16.02;8.40;;;-1.20;99.90;;;;;;4994336;28;20022;-88
2023/01/18 00:23:31;;;;;;;;;;;-1.20;99.90;;;;;;4994661;28;20030;-89
2023/01/18 00:26:08;;;;;;;20.05;8.15;;;-1.20;99.90;;;;;;5079679;28;19963;-88
2023/01/18 00:28:34;;;;;;;15.45;7.97;;;-1.20;99.90;;;;;;4994332;28;20060;-88
2023/01/18 00:31:01;;;;;;;17.40;7.68;;;-1.20;99.90;;;;;;4994420;28;20042;-88
2023/01/18 00:33:33;;;;;;;16.20;8.60;;;-1.20;99.90;;;;;;5079424;28;20099;-89
2023/01/18 00:36:01;;;;;;;19.10;8.27;;;-1.20;99.90;;;;;;4994114;28;20553;-89
2023/01/18 00:38:27;;;;;;;16.80;7.38;;;-1.20;99.90;;;;;;4994030;28;20088;-88
2023/01/18 00:40:53;;;;;;;18.10;7.47;;;-1.20;99.90;;;;;;5079120;28;20034;-88
2023/01/18 00:43:37;;;;;;;20.08;8.10;;;-1.20;99.90;;;;;;4994169;28;20034;-88
2023/01/18 00:46:08;;;;;;;17.95;7.70;;;-1.20;99.90;;;;;;4994170;28;20025;-89
2023/01/18 00:48:34;;;;;;;16.73;7.78;;;-1.20;99.90;;;;;;4994177;28;20038;-88
2023/01/18 00:51:00;;;;;;;15.20;8.30;;;-1.20;99.90;;;;;;4994196;28;20030;-89
2023/01/18 00:53:26;;;;;;;16.25;7.90;;;-1.20;99.90;;;;;;4993930;28;20128;-89
2023/01/18 00:55:52;;;;;;;20.58;8.85;;;-1.20;99.90;;;;;;4994325;28;20037;-89
2023/01/18 00:58:18;;;;;;;21.83;8.68;;;-1.10;99.90;;;;;;4981423;28;20023;-88
2023/01/18 01:00:43;;;;;;;18.15;8.02;;;-1.20;99.90;;;;;;5076223;28;20030;-89
2023/01/18 01:03:09;;;;;;;20.20;7.82;;;-1.20;99.90;;;;;;4990703;28;20072;-89
2023/01/18 01:08:22;;;;;;;18.85;7.82;;;-1.20;99.90;;;;;;4991946;28;20034;-89
2023/01/18 01:10:50;;;;;;;17.45;7.72;;;-1.20;99.90;;;;;;5079912;28;20405;-88
2023/01/18 01:27:04;;;;;;;16.30;8.38;;;-1.30;99.90;;;;;;4995502;28;20036;-89
2023/01/18 01:29:30;;;;;;;23.25;9.43;;;-1.30;99.90;;;;;;4993946;28;20460;-89
2023/01/18 01:31:56;;;;;;;18.60;8.90;;;-1.30;99.90;;;;;;4994123;28;20462;-90
2023/01/18 01:34:22;;;;;;;20.02;8.85;;;-1.30;99.90;;;;;;4993890;28;20129;-89
2023/01/18 01:36:49;;;;;;;16.30;8.32;;;-1.30;99.90;;;;;;4993936;28;20080;-89
2023/01/18 01:39:15;;;;;;;18.02;8.02;;;-1.30;99.90;;;;;;5080236;28;20068;-89
2023/01/18 01:41:40;;;;;;;15.07;8.02;;;-1.30;99.90;;;;;;4993903;28;20030;-91
2023/01/18 01:44:26;;;;;;;18.02;8.30;;;-1.30;99.90;;;;;;4993810;28;20462;-89
2023/01/18 01:47:04;;;;;;;16.98;7.68;;;-1.30;99.90;;;;;;4993998;28;20075;-89
2023/01/18 01:49:34;;;;;;;19.73;7.40;;;-1.30;99.90;;;;;;4994314;28;20065;-89
2023/01/18 01:52:09;;;;;;;15.38;6.63;;;-1.30;99.90;;;;;;4993579;28;20041;-89
2023/01/18 01:54:50;;;;;;;15.90;7.15;;;-1.30;99.90;;;;;;5079422;28;20436;-89
2023/01/18 01:57:19;;;;;;;18.75;7.50;;;-1.30;99.90;;;;;;4993526;28;20034;-89
2023/01/18 01:59:57;;;;;;;13.38;6.57;;;-1.30;99.90;;;;;;5079098;28;20038;-89
2023/01/18 02:02:22;;;;;;;15.23;6.65;;;-1.30;99.90;;;;;;4993282;28;20034;-89
2023/01/18 02:04:52;;;;;;;14.05;7.10;;;-1.30;99.90;;;;;;4993519;28;20022;-89
2023/01/18 02:07:20;;;;;;;14.43;7.32;;;-1.30;99.90;;;;;;4993810;28;20038;-89
2023/01/18 02:09:46;;;;;;;12.30;6.55;;;-1.30;99.90;;;;;;4993416;28;20042;-89
2023/01/18 02:12:13;;;;;;;10.70;6.45;;;-1.30;99.90;;;;;;4993301;28;20041;-89
2023/01/18 02:14:39;;;;;;;17.33;6.00;;;-1.40;99.90;;;;;;4993272;28;20525;-90
2023/01/18 02:17:17;;;;;;;10.63;5.78;;;-1.40;99.90;;;;;;4993249;28;20104;-88
2023/01/18 02:19:51;;;;;;;13.40;6.18;;;-1.40;99.90;;;;;;4992512;28;20030;-89
2023/01/18 02:22:43;;;;;;;17.35;7.35;;;-1.40;99.90;;;;;;4992739;28;20037;-89
2023/01/18 02:25:46;;;;;;;13.88;7.13;;;-1.40;99.90;;;;;;4992924;28;20384;-89
2023/01/18 02:28:16;;;;;;;13.30;6.72;;;-1.40;99.90;;;;;;4992940;28;20481;-89
2023/01/18 02:31:15;;;;;;;13.48;7.15;;;-1.40;99.90;;;;;;5078757;28;20054;-88
2023/01/18 02:33:40;;;;;;;13.15;6.55;;;-1.30;99.90;;;;;;5061679;28;20033;-89
2023/01/18 02:36:06;;;;;;;15.95;6.82;;;-1.40;99.90;;;;;;4992796;28;20027;-89
2023/01/18 02:38:40;;;;;;;12.70;6.75;;;-1.30;99.90;;;;;;4992726;28;20478;-89
2023/01/18 02:41:17;;;;;;;13.77;5.78;;;-1.30;99.90;;;;;;4992973;28;20034;-89
2023/01/18 02:46:34;;;;;;;14.82;6.13;;;-1.30;99.90;;;;;;5078388;28;20058;-89
2023/01/18 02:49:10;;;;;;;13.27;6.13;;;-1.30;99.90;;;;;;4992696;28;20034;-89
2023/01/18 02:51:36;;;;;;;11.32;6.20;;;-1.40;99.90;;;;;;5077984;28;20036;-90
2023/01/18 02:54:07;;;;;;;15.70;5.60;;;-1.40;99.90;;;;;;5078338;28;20034;-88
2023/01/18 02:56:45;;;;;;;17.80;5.93;;;-1.40;99.90;;;;;;5078241;28;20063;-89
2023/01/18 02:59:28;;;;;;;13.20;6.03;;;-1.40;99.90;;;;;;5077961;28;20103;-88
2023/01/18 03:02:01;;;;;;;16.90;5.95;;;-1.40;99.90;;;;;;5077992;28;20416;-89
2023/01/18 03:04:32;;;;;;;12.15;5.93;;;-1.40;99.90;;;;;;4992569;28;20037;-89
2023/01/18 03:07:07;;;;;;;10.07;6.00;;;-1.40;99.90;;;;;;4992397;28;20087;-88
2023/01/18 03:09:33;;;;;;;11.32;6.47;;;-1.40;99.90;;;;;;4992535;28;20128;-89
2023/01/18 03:12:14;;;;;;;16.13;6.63;;;-1.40;99.90;;;;;;4992253;28;20037;-89
2023/01/18 03:14:56;;;;;;;13.38;5.82;;;-1.40;99.90;;;;;;4976375;28;20038;-89
2023/01/18 03:17:42;;;;;;;12.00;5.85;;;-1.50;99.90;;;;;;4992308;28;20038;-89
2023/01/18 03:20:13;;;;;;;14.38;6.15;;;-1.50;99.90;;;;;;4992302;28;20092;-89
2023/01/18 03:25:38;;;;;;;11.70;5.97;;;-1.50;99.90;;;;;;5077597;28;20030;-89
2023/01/18 03:33:51;;;;;;;11.45;5.20;;;-1.50;99.90;;;;;;5077613;28;20030;-89
2023/01/18 03:36:22;;;;;;;17.73;7.07;;;-1.50;99.90;;;;;;4991914;28;20035;-89
2023/01/18 03:38:56;;;;;;;14.38;5.72;;;-1.50;99.90;;;;;;4992180;28;20030;-89
2023/01/18 03:41:26;;;;;;;13.15;6.35;;;-1.50;99.90;;;;;;4991997;28;20031;-88
2023/01/18 03:43:55;;;;;;;13.77;6.25;;;-1.60;99.90;;;;;;4992099;28;20073;-90
2023/01/18 03:46:25;;;;;;;16.80;7.30;;;-1.60;99.90;;;;;;4991747;28;20030;-90
2023/01/18 03:48:51;;;;;;;15.07;6.05;;;-1.60;99.90;;;;;;4992044;28;20121;-89
2023/01/18 03:51:52;;;;;;;12.70;5.50;;;-1.60;99.90;;;;;;4991835;28;20113;-89
2023/01/18 03:58:13;;;;;;;18.27;6.40;;;-1.60;99.90;;;;;;4993568;28;20036;-89
2023/01/18 04:00:39;;;;;;;17.83;6.30;;;-1.70;99.90;;;;;;4991966;28;20129;-89
2023/01/18 04:03:06;;;;;;;14.07;6.22;;;-1.60;99.90;;;;;;4991771;28;20557;-89
2023/01/18 04:05:33;;;;;;;13.20;6.30;;;-1.70;99.90;;;;;;5077112;28;20114;-89
2023/01/18 04:07:59;;;;;;;10.63;5.88;;;-1.70;99.90;;;;;;4991706;28;20053;-90
2023/01/18 04:10:40;;;;;;;17.05;6.22;;;-1.70;99.90;;;;;;5077138;28;20030;-89
2023/01/18 04:13:06;;;;;;;13.77;6.70;;;-1.70;99.90;;;;;;5076892;28;20034;-90
2023/01/18 04:15:31;;;;;;;21.58;6.47;;;-1.70;99.90;;;;;;4991725;28;20044;-89
2023/01/18 04:17:57;;;;;;;18.38;6.68;;;-1.70;99.90;;;;;;4991887;28;20129;-89
2023/01/18 04:20:23;;;;;;;12.65;6.28;;;-1.70;99.90;;;;;;4991744;28;20037;-89
2023/01/18 04:26:36;;;;;;;15.52;6.60;;;-1.70;99.90;;;;;;4993366;28;20034;-89
2023/01/18 04:29:03;;;;;;;16.30;6.28;;;-1.80;99.90;;;;;;5076662;28;20382;-90
2023/01/18 04:31:29;;;;;;;14.48;6.95;;;-1.80;99.90;;;;;;5076952;28;20070;-90
2023/01/18 04:33:55;;;;;;;14.68;6.35;;;-1.70;99.90;;;;;;4992307;28;20035;-89
2023/01/18 04:36:21;;;;;;;15.15;6.80;;;-1.70;99.90;;;;;;4991434;28;20030;-89
2023/01/18 04:38:51;;;;;;;12.50;6.32;;;-1.70;99.90;;;;;;4991451;28;20486;-89
2023/01/18 04:41:17;;;;;;;14.52;6.38;;;-1.80;99.90;;;;;;4991386;28;20481;-89
2023/01/18 04:43:43;;;;;;;16.60;6.75;;;-1.80;99.90;;;;;;4992401;28;20026;-89
2023/01/18 04:46:08;;;;;;;13.63;5.70;;;-1.80;99.90;;;;;;4994966;28;20065;-89
2023/01/18 04:48:34;;;;;;;16.23;6.93;;;-1.80;99.90;;;;;;4994750;28;20038;-89
2023/01/18 04:51:00;;;;;;;12.75;6.10;;;-1.80;99.90;;;;;;4995331;28;20061;-89
2023/01/18 04:53:25;;;;;;;19.63;6.65;;;-1.80;99.90;;;;;;4995002;28;20034;-89
2023/01/18 04:55:51;;;;;;;13.48;6.55;;;-1.80;99.90;;;;;;4995188;28;20474;-90
2023/01/18 04:58:16;;;;;;;18.48;6.47;;;-1.80;99.90;;;;;;4994794;28;20029;-90
2023/01/18 05:00:42;;;;;;;14.88;6.00;;;-1.80;99.90;;;;;;4994845;28;20112;-89
2023/01/18 05:03:10;;;;;;;14.43;6.63;;;-1.80;99.90;;;;;;4994569;28;20394;-90
2023/01/18 05:05:37;;;;;;;14.60;7.10;;;-1.80;99.90;;;;;;5080678;28;20027;-89
2023/01/18 05:08:02;;;;;;;16.10;6.80;;;-1.80;99.90;;;;;;4994745;28;20035;-89
2023/01/18 05:10:28;;;;;;;17.17;6.78;;;-1.80;99.90;;;;;;4994792;28;20049;-90
2023/01/18 05:12:54;;;;;;;19.80;8.57;;;-1.80;99.90;;;;;;4994991;28;20034;-90
2023/01/18 05:15:20;;;;;;;15.52;7.65;;;-1.70;99.90;;;;;;4994991;28;20034;-89
2023/01/18 05:17:46;;;;;;;14.45;7.10;;;-1.70;99.90;;;;;;4994975;28;20061;-90
2023/01/18 05:20:12;;;;;;;17.73;8.23;;;-1.70;99.90;;;;;;4994273;28;20038;-89
2023/01/18 05:22:38;;;;;;;18.88;9.13;;;-1.70;99.90;;;;;;4994619;28;20030;-90
2023/01/18 05:25:04;;;;;;;20.20;9.57;;;-1.70;99.90;;;;;;4994741;28;20477;-90
2023/01/18 05:27:30;;;;;;;23.85;10.52;;;-1.70;99.90;;;;;;4994500;28;20023;-90
2023/01/18 05:29:56;;;;;;;21.85;10.48;;;-1.80;99.90;;;;;;4978235;28;20120;-89
2023/01/18 05:32:22;;;;;;;21.25;10.73;;;-1.80;99.90;;;;;;4994282;28;20066;-88
2023/01/18 05:34:48;;;;;;;25.85;10.48;;;-1.80;99.90;;;;;;4994001;28;20034;-90
2023/01/18 05:37:14;;;;;;;20.48;9.75;;;-1.70;99.90;;;;;;5079769;28;20031;-89
2023/01/18 05:39:40;;;;;;;21.52;10.90;;;-1.80;99.90;;;;;;4994242;28;20037;-90
2023/01/18 05:42:05;;;;;;;22.20;10.57;;;-1.80;99.90;;;;;;4994315;28;20034;-90
2023/01/18 05:44:31;;;;;;;30.83;12.18;;;-1.80;99.90;;;;;;4994334;28;20030;-91
2023/01/18 05:46:58;;;;;;;22.58;11.10;;;-1.80;99.90;;;;;;4994270;28;20037;-90
2023/01/18 05:49:23;;;;;;;25.52;11.30;;;-1.80;99.90;;;;;;4994261;28;20026;-89
2023/01/18 05:51:49;;;;;;;21.65;11.57;;;-1.80;99.90;;;;;;4993810;28;20112;-89
2023/01/18 05:54:15;;;;;;;20.95;10.95;;;-1.80;99.90;;;;;;5079605;28;20031;-90
2023/01/18 05:56:41;;;;;;;25.67;12.52;;;-1.80;99.90;;;;;;4994091;28;20045;-90
2023/01/18 05:59:07;;;;;;;21.33;10.93;;;-1.80;99.90;;;;;;4993936;28;20061;-90
2023/01/18 06:01:33;;;;;;;26.50;10.65;;;-1.80;99.90;;;;;;4993973;28;20031;-90
2023/01/18 06:03:59;;;;;;;30.67;12.00;;;-1.90;99.90;;;;;;4994386;28;20060;-89
2023/01/18 06:06:24;;;;;;;19.25;10.02;;;-1.90;99.90;;;;;;4993708;28;20027;-90
2023/01/18 06:08:50;;;;;;;22.08;10.32;;;-1.90;99.90;;;;;;5079716;28;20126;-90
2023/01/18 06:11:16;;;;;;;20.17;10.30;;;-1.90;99.90;;;;;;4993798;28;20030;-89
2023/01/18 06:13:42;;;;;;;23.45;10.77;;;-1.90;99.90;;;;;;4994100;28;20035;-91
2023/01/18 06:16:08;;;;;;;19.88;10.35;;;-1.90;99.90;;;;;;4993592;28;20034;-90
2023/01/18 06:18:33;;;;;;;23.30;10.00;;;-1.90;99.90;;;;;;4993562;28;20069;-90
2023/01/18 06:21:01;;;;;;;16.67;8.82;;;-1.90;99.90;;;;;;4993333;28;20412;-91
2023/01/18 06:23:28;;;;;;;13.82;8.75;;;-1.90;99.90;;;;;;4993484;28;20031;-90
2023/01/18 06:25:54;;;;;;;22.08;10.40;;;-1.90;99.90;;;;;;4993450;28;20133;-91
2023/01/18 06:28:21;;;;;;;20.35;9.85;;;-1.90;99.90;;;;;;4993832;28;20115;-89
2023/01/18 06:30:50;;;;;;;17.15;9.20;;;-1.90;99.90;;;;;;4993288;28;20044;-90
2023/01/18 06:33:16;;;;;;;14.88;8.40;;;-1.90;99.90;;;;;;4993207;28;20034;-91
2023/01/18 06:35:42;;;;;;;17.50;8.93;;;-1.90;99.90;;;;;;4993723;28;20491;-89
2023/01/18 06:38:12;;;;;;;16.88;9.15;;;-1.90;99.90;;;;;;4993144;28;20092;-90
2023/01/18 06:40:38;;;;;;;22.08;9.73;;;-1.90;99.90;;;;;;4993184;28;20068;-89
2023/01/18 06:43:04;;;;;;;19.80;9.65;;;-1.90;99.90;;;;;;4993273;28;20432;-89
2023/01/18 06:45:29;;;;;;;16.45;8.70;;;-1.90;99.90;;;;;;4993404;28;20031;-90
2023/01/18 06:47:56;;;;;;;21.42;9.52;;;-1.90;99.90;;;;;;4993340;28;20031;-90
2023/01/18 06:50:21;;;;;;;16.50;8.93;;;-2.00;99.90;;;;;;5078715;28;20037;-90
2023/01/18 06:52:47;;;;;;;17.67;10.38;;;-2.00;99.90;;;;;;4993045;28;20038;-90
2023/01/18 06:55:14;;;;;;;26.60;10.57;;;-2.00;99.90;;;;;;4992994;28;20030;-89
2023/01/18 06:57:40;;;;;;;21.70;11.10;;;-2.10;99.90;;;;;;4993120;28;20038;-90
2023/01/18 07:00:07;;;;;;;21.77;10.50;;;-2.10;99.90;;;;;;5078374;28;20030;-90
2023/01/18 07:02:34;;;;;;;24.45;11.55;;;-2.10;99.90;;;;;;4993070;28;20026;-90
2023/01/18 07:05:34;;;;;;;24.90;11.70;;;-2.10;99.90;;;;;;4992914;28;20049;-89
2023/01/18 07:07:59;;;;;;;52.17;17.13;;;-2.10;99.90;;;;;;5077905;28;20389;-89
2023/01/18 07:10:25;;;;;;;22.65;11.93;;;-2.10;99.90;;;;;;4992787;28;20034;-90
2023/01/18 07:13:09;;;;;;;32.88;12.30;;;-2.10;99.90;;;;;;4992525;28;20482;-90
2023/01/18 07:15:35;;;;;;;25.83;11.98;;;-2.10;99.90;;;;;;4992070;28;20034;-90
2023/01/18 07:18:00;;;;;;;29.23;13.25;;;-2.10;99.90;;;;;;5077205;28;20053;-89
2023/01/18 07:20:27;;;;;;;27.75;12.50;;;-2.00;99.90;;;;;;4991815;28;20185;-90
2023/01/18 07:22:52;;;;;;;28.88;12.63;;;-2.00;99.90;;;;;;4991490;28;20508;-89
2023/01/18 07:25:19;;;;;;;26.25;12.55;;;-2.00;99.90;;;;;;4991742;28;20080;-91
2023/01/18 07:27:47;;;;;;;24.75;13.05;;;-2.00;99.90;;;;;;4991727;28;20449;-89
2023/01/18 07:30:13;;;;;;;24.50;12.32;;;-2.00;99.90;;;;;;5077451;28;20037;-90
2023/01/18 07:32:48;;;;;;;36.30;13.80;;;-2.00;99.90;;;;;;4991910;28;20489;-89
2023/01/18 07:35:14;;;;;;;25.00;12.38;;;-2.00;99.90;;;;;;4991848;28;20121;-90
2023/01/18 07:37:40;;;;;;;24.15;12.57;;;-2.00;99.90;;;;;;4991624;28;20470;-90
2023/01/18 07:40:09;;;;;;;28.90;12.40;;;-1.90;99.90;;;;;;4991695;28;20054;-90
2023/01/18 07:42:35;;;;;;;28.23;12.20;;;-1.90;99.90;;;;;;4991595;28;20042;-88
2023/01/18 07:45:00;;;;;;;26.83;12.00;;;-1.90;99.90;;;;;;5077738;28;20031;-88
2023/01/18 07:47:26;;;;;;;33.22;13.20;;;-1.90;99.90;;;;;;5078114;28;20033;-88
2023/01/18 07:49:52;;;;;;;21.58;11.00;;;-1.90;99.90;;;;;;4992384;28;20034;-89
2023/01/18 07:52:18;;;;;;;31.50;12.38;;;-1.80;99.90;;;;;;4992560;28;20026;-88
2023/01/18 07:54:44;;;;;;;32.13;12.60;;;-1.90;99.90;;;;;;4992874;28;20038;-89
2023/01/18 07:57:10;;;;;;;24.98;12.95;;;-1.80;99.90;;;;;;4992291;28;20532;-90
2023/01/18 07:59:38;;;;;;;26.52;11.02;;;-1.80;99.90;;;;;;4992580;28;20034;-90
2023/01/18 08:02:05;;;;;;;23.20;11.75;;;-1.70;99.90;;;;;;4991610;28;20031;-88
2023/01/18 08:04:30;;;;;;;21.05;10.77;;;-1.70;99.90;;;;;;4990635;28;20027;-88
2023/01/18 08:06:57;;;;;;;23.45;11.48;;;-1.70;99.90;;;;;;4990392;28;20033;-88
2023/01/18 08:09:22;;;;;;;23.55;11.13;;;-1.70;99.90;;;;;;4990400;28;20026;-89
2023/01/18 08:11:48;;;;;;;21.25;11.00;;;-1.70;99.90;;;;;;4989800;28;20088;-90
2023/01/18 08:14:14;;;;;;;21.17;10.77;;;-1.70;99.90;;;;;;4990202;28;20034;-89
2023/01/18 08:16:39;;;;;;;20.48;10.88;;;-1.70;99.90;;;;;;4990307;28;20048;-89
2023/01/18 08:19:05;;;;;;;31.05;12.75;;;-1.60;99.90;;;;;;4989186;28;20042;-89
2023/01/18 08:21:32;;;;;;;24.92;10.35;;;-1.60;99.90;;;;;;4990272;28;20034;-89
2023/01/18 08:23:58;;;;;;;19.80;10.52;;;-1.60;99.90;;;;;;4990377;28;20379;-89
2023/01/18 08:26:24;;;;;;;20.92;10.00;;;-1.50;99.90;;;;;;4990286;28;20067;-90
2023/01/18 08:28:50;;;;;;;18.63;9.95;;;-1.50;99.90;;;;;;4989403;28;20030;-89
2023/01/18 08:31:20;;;;;;;19.70;11.25;;;-1.50;99.90;;;;;;4989974;28;20037;-89
2023/01/18 08:33:47;;;;;;;14.57;8.07;;;-1.40;99.90;;;;;;4990045;28;20038;-90
2023/01/18 08:36:19;;;;;;;19.55;9.77;;;-1.30;99.90;;;;;;4989861;28;20034;-90
2023/01/18 08:38:50;;;;;;;22.23;8.48;;;-1.30;99.90;;;;;;4989541;28;20377;-89
2023/01/18 08:41:16;;;;;;;;;;;-1.20;99.90;;;;;;4973898;28;20046;-89
2023/01/18 08:43:42;;;;;;;20.08;9.88;;;-1.20;99.90;;;;;;5074289;28;19910;-88
2023/01/18 08:46:08;;;;;;;28.25;10.93;;;-1.10;99.90;;;;;;4989543;28;20125;-89
2023/01/18 08:48:34;;;;;;;19.83;10.13;;;-1.00;99.90;;;;;;4989903;28;20030;-89
2023/01/18 08:51:01;;;;;;;17.90;9.68;;;-1.00;99.90;;;;;;4990021;28;20061;-89
2023/01/18 08:53:28;;;;;;;18.20;9.55;;;-0.90;99.90;;;;;;4989812;28;20027;-89
2023/01/18 08:55:53;;;;;;;20.58;10.60;;;-0.90;99.90;;;;;;4989667;28;20478;-89
2023/01/18 08:58:19;;;;;;;19.00;10.68;;;-0.90;99.90;;;;;;4989114;28;20103;-89
2023/01/18 09:00:49;;;;;;;19.25;9.77;;;-0.90;99.90;;;;;;4989771;28;20030;-90
2023/01/18 09:03:21;;;;;;;17.73;9.45;;;-0.90;99.90;;;;;;4989137;28;20512;-90
2023/01/18 09:05:50;;;;;;;24.35;9.70;;;-0.90;99.90;;;;;;4989577;28;20034;-89
2023/01/18 09:08:16;;;;;;;20.90;11.57;;;-0.80;99.90;;;;;;4989742;28;20058;-89
2023/01/18 09:10:43;;;;;;;20.55;10.45;;;-0.90;99.90;;;;;;4990136;28;20064;-89
2023/01/18 09:13:09;;;;;;;20.33;11.55;;;-0.80;99.90;;;;;;4989138;28;20030;-89
2023/01/18 09:15:36;;;;;;;18.17;9.55;;;-0.80;99.90;;;;;;4989141;28;20034;-89
2023/01/18 09:18:05;;;;;;;19.38;9.85;;;-0.70;99.90;;;;;;4990042;28;20791;-88
2023/01/18 09:20:34;;;;;;;19.83;9.77;;;-0.70;99.90;;;;;;4988568;28;20065;-89
2023/01/18 09:23:22;;;;;;;15.05;8.50;;;-0.70;99.90;;;;;;4989668;28;20022;-89
2023/01/18 09:25:48;;;;;;;22.90;10.15;;;-0.70;99.90;;;;;;5074660;28;20042;-89
2023/01/18 09:28:16;;;;;;;16.25;8.73;;;-0.70;99.90;;;;;;4989123;28;20037;-89
2023/01/18 09:30:42;;;;;;;18.80;10.23;;;-0.60;99.90;;;;;;4990734;28;20022;-89
2023/01/18 09:33:07;;;;;;;15.77;8.32;;;-0.60;99.90;;;;;;4992445;28;20045;-89
2023/01/18 09:35:33;;;;;;;16.27;8.68;;;-0.70;99.90;;;;;;4992615;28;20446;-87
2023/01/18 09:37:59;;;;;;;18.58;9.10;;;-0.70;99.90;;;;;;4992297;28;20065;-89
2023/01/18 09:40:41;;;;;;;18.65;9.07;;;-0.70;99.90;;;;;;4992350;28;20409;-89
2023/01/18 09:43:16;;;;;;;15.40;8.25;;;-0.60;99.90;;;;;;4991987;28;20035;-88
2023/01/18 09:45:46;;;;;;;18.02;9.60;;;-0.60;99.90;;;;;;4992240;28;20030;-89
2023/01/18 09:48:24;;;;;;;14.55;8.43;;;-0.60;99.90;;;;;;4976138;28;20026;-89
2023/01/18 09:50:52;;;;;;;22.33;10.75;;;-0.50;99.90;;;;;;4991638;28;20530;-89
2023/01/18 09:53:26;;;;;;;23.77;8.90;;;-0.40;99.90;;;;;;4991786;28;20042;-89
2023/01/18 09:55:52;;;;;;;13.30;7.80;;;-0.30;99.90;;;;;;4991995;28;20041;-89
2023/01/18 09:58:33;;;;;;;15.20;7.82;;;-0.30;99.90;;;;;;4976475;28;20041;-89
2023/01/18 10:01:14;;;;;;;16.20;8.48;;;-0.30;99.90;;;;;;4992428;28;20034;-89
2023/01/18 10:03:54;;;;;;;13.15;7.60;;;-0.20;99.90;;;;;;4992053;28;20080;-90
2023/01/18 10:06:29;;;;;;;15.27;7.53;;;-0.20;99.90;;;;;;4991835;28;20497;-89
2023/01/18 10:09:05;;;;;;;18.27;8.65;;;-0.20;99.90;;;;;;4992068;28;20030;-89
2023/01/18 10:11:46;;;;;;;13.55;7.18;;;-0.30;99.90;;;;;;4992388;28;20509;-89
2023/01/18 10:17:35;;;;;;;20.15;8.52;;;-0.10;99.90;;;;;;4992310;28;20031;-89
2023/01/18 10:20:30;;;;;;;14.32;8.18;;;0.00;99.90;;;;;;4991984;28;20035;-89
2023/01/18 10:23:05;;;;;;;17.90;8.73;;;0.10;99.90;;;;;;5060757;28;20065;-89
2023/01/18 10:25:42;;;;;;;19.45;8.88;;;0.10;99.90;;;;;;4992709;28;20027;-89
2023/01/18 10:28:40;;;;;;;22.45;9.05;;;0.20;99.90;;;;;;4991994;28;20030;-89
2023/01/18 10:31:15;;;;;;;16.13;8.05;;;0.10;99.90;;;;;;4991186;28;20050;-89
2023/01/18 10:33:43;;;;;;;19.02;7.93;;;0.10;99.90;;;;;;4991068;28;20105;-89
2023/01/18 10:36:19;;;;;;;24.13;8.93;;;0.10;99.90;;;;;;4991026;28;20440;-89
2023/01/18 10:38:48;;;;;;;23.55;8.30;;;0.20;99.90;;;;;;4990994;28;20045;-89
2023/01/18 10:41:21;;;;;;;20.92;8.38;;;0.20;99.90;;;;;;4989815;28;20034;-89
2023/01/18 10:43:47;;;;;;;19.35;8.90;;;0.20;99.90;;;;;;4990867;28;20038;-88
2023/01/18 10:46:17;;;;;;;19.88;8.25;;;0.30;99.90;;;;;;4991769;28;20036;-90
2023/01/18 10:48:48;;;;;;;17.42;7.75;;;0.40;99.90;;;;;;4991652;28;20080;-89
2023/01/18 10:51:31;;;;;;;14.55;7.70;;;0.50;99.90;;;;;;4991324;28;20385;-88
2023/01/18 10:53:57;;;;;;;21.58;9.90;;;0.60;99.90;;;;;;4990773;28;20490;-88
2023/01/18 10:56:25;;;;;;;17.90;8.00;;;0.50;99.90;;;;;;4990834;28;20551;-88
2023/01/18 10:58:56;;;;;;;22.85;7.82;;;0.50;99.90;;;;;;4991148;28;20042;-89
2023/01/18 11:01:51;;;;;;;13.02;7.35;;;0.40;99.90;;;;;;4991418;28;20031;-89
2023/01/18 11:04:21;;;;;;;19.55;7.78;;;0.30;99.90;;;;;;4990776;28;20038;-88
2023/01/18 11:07:03;;;;;;;16.00;7.10;;;0.20;99.90;;;;;;5076266;28;20181;-88
2023/01/18 11:09:41;;;;;;;18.52;6.57;;;0.20;99.90;;;;;;4992503;28;20090;-89
2023/01/18 11:12:40;;;;;;;15.77;6.60;;;0.10;99.90;;;;;;5076365;28;20042;-89
2023/01/18 11:15:14;;;;;;;12.63;6.45;;;0.00;99.90;;;;;;4992047;28;20057;-88
2023/01/18 11:17:49;;;;;;;14.98;6.82;;;0.10;99.90;;;;;;4990866;28;20075;-88
2023/01/18 11:20:18;;;;;;;11.00;6.07;;;0.10;99.90;;;;;;4990456;28;20035;-88
2023/01/18 11:23:36;;;;;;;16.55;5.53;;;0.10;99.90;;;;;;4990697;28;20022;-88
2023/01/18 11:26:17;;;;;;;14.23;5.82;;;0.30;99.90;;;;;;4958716;28;20077;-89
2023/01/18 11:29:04;;;;;;;12.60;5.60;;;0.10;99.90;;;;;;5076491;28;20030;-88
2023/01/18 11:31:45;;;;;;;19.42;6.85;;;0.20;99.90;;;;;;4989989;28;20041;-89
2023/01/18 11:34:26;;;;;;;26.88;6.53;;;0.30;99.90;;;;;;4990439;28;20854;-88
2023/01/18 11:36:53;;;;;;;15.90;5.95;;;0.40;99.90;;;;;;4990322;28;20799;-88
2023/01/18 11:39:25;;;;;;;14.45;5.68;;;0.30;99.90;;;;;;4990303;28;20060;-88
2023/01/18 11:42:23;;;;;;;13.70;6.13;;;0.30;99.90;;;;;;5075804;28;20786;-88
2023/01/18 11:45:24;;;;;;;16.85;5.85;;;0.10;99.90;;;;;;4990437;28;20057;-88
2023/01/18 11:48:02;;;;;;;12.30;5.43;;;0.10;99.90;;;;;;5075956;28;20045;-88
2023/01/18 11:50:45;;;;;;;14.40;5.00;;;0.10;99.90;;;;;;4974026;28;20076;-88
2023/01/18 11:53:16;;;;;;;13.60;5.43;;;0.10;99.90;;;;;;4990252;28;20164;-89
2023/01/18 11:56:05;;;;;;;22.88;6.32;;;0.20;99.90;;;;;;4990594;28;20677;-89
2023/01/18 11:58:33;;;;;;;14.52;5.68;;;0.40;99.90;;;;;;4990115;28;20551;-89
2023/01/18 12:01:14;;;;;;;12.52;5.15;;;0.60;99.90;;;;;;4990090;28;20083;-88
2023/01/18 12:04:01;;;;;;;10.97;5.80;;;0.90;99.90;;;;;;4990158;28;20797;-88
2023/01/18 12:06:37;;;;;;;16.55;6.35;;;1.10;99.90;;;;;;4973467;28;20373;-89
2023/01/18 12:09:33;;;;;;;19.30;6.32;;;1.20;99.90;;;;;;4973339;28;20042;-89
2023/01/18 12:12:27;;;;;;;18.27;5.32;;;0.90;99.90;;;;;;4956886;28;20136;-89
2023/01/18 12:15:30;;;;;;;20.17;5.50;;;0.80;99.90;;;;;;5058131;28;20041;-89
2023/01/18 12:18:22;;;;;;;16.52;5.93;;;0.80;99.90;;;;;;5057849;28;20061;-89
2023/01/18 12:21:09;;;;;;;15.45;5.50;;;1.10;99.90;;;;;;4989969;28;20113;-90
2023/01/18 12:23:58;;;;;;;16.13;5.53;;;1.20;99.90;;;;;;5075547;28;20058;-88
2023/01/18 12:26:53;;;;;;;20.05;6.30;;;1.10;99.90;;;;;;4989919;28;20026;-87
2023/01/18 12:29:50;;;;;;;16.48;6.18;;;1.00;99.90;;;;;;4971451;28;20057;-88
2023/01/18 12:32:42;;;;;;;16.60;6.28;;;0.90;99.90;;;;;;4989698;28;20026;-88
2023/01/18 12:35:21;;;;;;;11.68;5.50;;;1.00;99.90;;;;;;4989743;28;20031;-88
2023/01/18 12:38:03;;;;;;;13.18;5.43;;;0.90;99.90;;;;;;4989571;28;20635;-88
2023/01/18 12:41:23;;;;;;;11.38;5.32;;;0.90;99.90;;;;;;4989313;28;20104;-88
2023/01/18 12:44:33;;;;;;;13.65;5.30;;;0.90;99.90;;;;;;4971539;28;20038;-88
2023/01/18 12:47:33;;;;;;;10.80;5.70;;;0.80;99.90;;;;;;4951891;28;20042;-88
2023/01/18 12:50:03;;;;;;;16.45;5.00;;;0.80;99.90;;;;;;4989691;28;20498;-88
2023/01/18 12:52:34;;;;;;;33.15;6.65;;;1.00;99.90;;;;;;4989904;28;20034;-88
2023/01/18 12:55:04;;;;;;;16.33;5.00;;;1.20;99.90;;;;;;5074972;28;20026;-88
2023/01/18 12:57:32;;;;;;;13.97;5.63;;;1.20;99.90;;;;;;4989271;28;20303;-88
2023/01/18 13:00:04;;;;;;;29.02;10.65;;;1.30;99.90;;;;;;4990162;28;20379;-88
2023/01/18 13:02:33;;;;;;;14.55;6.00;;;1.30;99.90;;;;;;4988417;28;20672;-88
2023/01/18 13:05:20;;;;;;;23.70;6.72;;;1.20;99.90;;;;;;5074550;28;20663;-88
2023/01/18 13:08:03;;;;;;;13.27;7.20;;;1.20;99.90;;;;;;5078758;28;20034;-88
2023/01/18 13:10:29;;;;;;;28.25;11.32;;;1.20;99.90;;;;;;4992798;28;20034;-89
2023/01/18 13:12:56;;;;;;;33.55;12.32;;;1.10;99.90;;;;;;4992881;28;20029;-89
2023/01/18 13:15:43;;;;;;;27.23;13.43;;;1.00;99.90;;;;;;4993097;28;20397;-88
2023/01/18 13:18:29;;;;;;;34.70;11.10;;;1.00;99.90;;;;;;4993174;28;20147;-89
2023/01/18 13:21:15;;;;;;;20.00;9.27;;;0.80;99.90;;;;;;4992838;28;20163;-89
2023/01/18 13:24:07;;;;;;;20.73;9.25;;;0.80;99.90;;;;;;4992645;28;20035;-88
2023/01/18 13:26:34;;;;;;;25.40;11.88;;;0.70;99.90;;;;;;5061735;28;20030;-87
2023/01/18 13:29:18;;;;;;;13.27;6.60;;;0.60;99.90;;;;;;4992660;28;20098;-89
2023/01/18 13:31:51;;;;;;;21.63;9.65;;;0.50;99.90;;;;;;4976488;28;20038;-88
2023/01/18 13:34:30;;;;;;;15.15;7.13;;;0.40;99.90;;;;;;4992614;28;20042;-89
2023/01/18 13:36:57;;;;;;;17.17;7.18;;;0.30;99.90;;;;;;4992270;28;20035;-89
2023/01/18 13:39:24;;;;;;;31.50;12.40;;;0.20;99.90;;;;;;4993024;28;20068;-88
2023/01/18 13:42:07;;;;;;;22.77;10.90;;;0.10;99.90;;;;;;4992844;28;20034;-89